createdAt,value
2018-12-18T00:01:58.138Z,-0.10
2018-12-18T00:04:26.465Z,-0.30
2018-12-18T00:06:54.929Z,-0.40
2018-12-18T00:09:24.074Z,-0.50
2018-12-18T00:11:59.163Z,-0.60
2018-12-18T00:14:23.683Z,-0.70
2018-12-18T00:16:52.273Z,-0.70
2018-12-18T00:19:20.621Z,-0.70
2018-12-18T00:21:49.373Z,-0.70
2018-12-18T00:24:19.340Z,-0.70
2018-12-18T00:26:49.411Z,-0.70
2018-12-18T00:29:17.853Z,-0.80
2018-12-18T00:31:46.378Z,-0.90
2018-12-18T00:34:15.059Z,-0.90
2018-12-18T00:36:43.624Z,-1.00
2018-12-18T00:39:14.852Z,-0.90
2018-12-18T00:41:43.654Z,-0.90
2018-12-18T00:44:12.061Z,-0.80
2018-12-18T00:46:40.341Z,-0.70
2018-12-18T00:49:09.124Z,-0.60
2018-12-18T00:51:37.801Z,-0.50
2018-12-18T00:54:06.368Z,-0.40
2018-12-18T00:56:36.182Z,-0.30
2018-12-18T00:59:04.895Z,-0.30
2018-12-18T01:01:34.545Z,-0.40
2018-12-18T01:04:04.102Z,-0.40
2018-12-18T01:06:33.926Z,-0.50
2018-12-18T01:09:02.412Z,-0.60
2018-12-18T01:11:32.447Z,-0.60
2018-12-18T01:14:00.978Z,-0.70
2018-12-18T01:16:30.357Z,-0.80
2018-12-18T01:18:58.883Z,-0.70
2018-12-18T01:21:27.985Z,-0.70
2018-12-18T01:23:57.177Z,-0.70
2018-12-18T01:26:25.720Z,-0.80
2018-12-18T01:28:54.465Z,-0.80
2018-12-18T01:31:23.112Z,-0.80
2018-12-18T01:33:52.341Z,-0.70
2018-12-18T01:36:20.769Z,-0.70
2018-12-18T01:38:50.153Z,-0.80
2018-12-18T01:41:18.900Z,-0.80
2018-12-18T01:43:48.019Z,-0.90
2018-12-18T01:46:16.581Z,-0.80
2018-12-18T01:48:45.780Z,-0.80
2018-12-18T01:51:14.586Z,-0.80
2018-12-18T01:53:43.264Z,-0.70
2018-12-18T01:56:11.751Z,-0.70
2018-12-18T01:58:40.776Z,-0.60
2018-12-18T02:01:09.468Z,-0.70
2018-12-18T02:03:38.619Z,-0.60
2018-12-18T02:06:07.627Z,-0.50
2018-12-18T02:08:36.153Z,-0.60
2018-12-18T02:11:05.257Z,-0.60
2018-12-18T02:13:34.296Z,-0.70
2018-12-18T02:16:02.735Z,-0.90
2018-12-18T02:18:31.145Z,-0.90
2018-12-18T02:20:59.738Z,-1.10
2018-12-18T02:23:28.169Z,-1.20
2018-12-18T02:25:56.569Z,-1.30
2018-12-18T02:28:25.060Z,-1.50
2018-12-18T02:30:53.524Z,-1.50
2018-12-18T02:33:22.929Z,-1.50
2018-12-18T02:35:51.355Z,-1.60
2018-12-18T02:38:20.088Z,-1.60
2018-12-18T02:40:48.791Z,-1.60
2018-12-18T02:43:17.497Z,-1.60
2018-12-18T02:45:45.908Z,-1.60
2018-12-18T02:48:14.598Z,-1.60
2018-12-18T02:50:43.679Z,-1.60
2018-12-18T02:53:12.280Z,-1.60
2018-12-18T02:55:40.722Z,-1.60
2018-12-18T02:58:09.389Z,-1.60
2018-12-18T03:00:37.704Z,-1.50
2018-12-18T03:03:06.278Z,-1.60
2018-12-18T03:05:35.948Z,-1.70
2018-12-18T03:08:05.395Z,-1.70
2018-12-18T03:10:34.541Z,-1.80
2018-12-18T03:13:03.014Z,-1.90
2018-12-18T03:15:31.653Z,-1.90
2018-12-18T03:18:00.543Z,-1.80
2018-12-18T03:20:29.080Z,-1.80
2018-12-18T03:22:57.389Z,-1.80
2018-12-18T03:25:25.996Z,-1.70
2018-12-18T03:27:54.669Z,-1.80
2018-12-18T03:30:23.330Z,-1.90
2018-12-18T03:32:54.052Z,-2.00
2018-12-18T03:35:22.738Z,-2.10
2018-12-18T03:37:51.047Z,-2.10
2018-12-18T03:40:19.397Z,-2.10
2018-12-18T03:42:47.904Z,-2.10
2018-12-18T03:45:16.719Z,-2.10
2018-12-18T03:47:46.937Z,-2.10
2018-12-18T03:50:15.572Z,-2.20
2018-12-18T03:52:44.333Z,-2.10
2018-12-18T03:55:12.835Z,-1.90
2018-12-18T03:57:42.352Z,-1.90
2018-12-18T04:00:12.271Z,-1.80
2018-12-18T04:02:40.739Z,-1.90
2018-12-18T04:05:09.976Z,-2.00
2018-12-18T04:07:38.867Z,-2.20
2018-12-18T04:10:07.689Z,-2.20
2018-12-18T04:12:37.494Z,-2.40
2018-12-18T04:15:06.792Z,-2.50
2018-12-18T04:17:35.278Z,-2.60
2018-12-18T04:20:05.302Z,-2.70
2018-12-18T04:22:34.020Z,-2.70
2018-12-18T04:25:02.660Z,-2.60
2018-12-18T04:27:31.395Z,-2.60
2018-12-18T04:30:00.634Z,-2.60
2018-12-18T04:32:29.525Z,-2.60
2018-12-18T04:34:58.563Z,-2.70
2018-12-18T04:37:26.965Z,-2.70
2018-12-18T04:39:56.141Z,-2.80
2018-12-18T04:42:24.743Z,-2.80
2018-12-18T04:44:53.292Z,-2.90
2018-12-18T04:47:21.837Z,-2.90
2018-12-18T04:49:51.352Z,-2.90
2018-12-18T04:52:20.069Z,-2.80
2018-12-18T04:54:48.770Z,-2.80
2018-12-18T04:57:17.549Z,-2.80
2018-12-18T04:59:47.399Z,-2.80
2018-12-18T05:02:17.538Z,-2.80
2018-12-18T05:04:50.176Z,-2.80
2018-12-18T05:07:16.735Z,-2.70
2018-12-18T05:09:45.754Z,-2.70
2018-12-18T05:12:14.176Z,-2.60
2018-12-18T05:14:42.714Z,-2.60
2018-12-18T05:17:11.804Z,-2.50
2018-12-18T05:19:41.536Z,-2.50
2018-12-18T05:22:10.703Z,-2.60
2018-12-18T05:24:39.316Z,-2.70
2018-12-18T05:27:07.701Z,-2.90
2018-12-18T05:29:36.554Z,-2.90
2018-12-18T05:32:05.293Z,-3.00
2018-12-18T05:34:34.221Z,-3.00
2018-12-18T05:37:02.974Z,-3.00
2018-12-18T05:39:31.730Z,-3.00
2018-12-18T05:42:01.519Z,-2.90
2018-12-18T05:44:30.038Z,-2.80
2018-12-18T05:46:58.484Z,-2.50
2018-12-18T05:49:27.162Z,-2.30
2018-12-18T05:51:55.551Z,-2.30
2018-12-18T05:54:23.845Z,-2.50
2018-12-18T05:56:52.586Z,-2.70
2018-12-18T05:59:21.144Z,-2.90
2018-12-18T06:01:49.721Z,-3.00
2018-12-18T06:04:18.302Z,-3.10
2018-12-18T06:06:47.293Z,-3.20
2018-12-18T06:09:15.800Z,-3.30
2018-12-18T06:11:44.488Z,-3.30
2018-12-18T06:14:13.270Z,-3.30
2018-12-18T06:16:43.869Z,-3.30
2018-12-18T06:19:12.462Z,-3.30
2018-12-18T06:21:41.061Z,-3.30
2018-12-18T06:24:09.812Z,-3.20
2018-12-18T06:26:38.235Z,-3.30
2018-12-18T06:29:06.585Z,-3.40
2018-12-18T06:31:34.949Z,-3.40
2018-12-18T06:34:03.406Z,-3.40
2018-12-18T06:36:31.859Z,-3.40
2018-12-18T06:39:00.133Z,-3.30
2018-12-18T06:41:28.424Z,-3.30
2018-12-18T06:43:56.745Z,-3.20
2018-12-18T06:46:25.068Z,-3.20
2018-12-18T06:48:53.330Z,-3.00
2018-12-18T06:51:21.767Z,-2.80
2018-12-18T06:53:50.034Z,-2.70
2018-12-18T06:56:18.237Z,-2.80
2018-12-18T06:58:46.757Z,-2.90
2018-12-18T07:01:14.978Z,-3.10
2018-12-18T07:03:43.400Z,-3.30
2018-12-18T07:06:12.209Z,-3.40
2018-12-18T07:08:40.557Z,-3.60
2018-12-18T07:11:09.596Z,-3.70
2018-12-18T07:13:38.187Z,-3.70
2018-12-18T07:16:06.760Z,-3.70
2018-12-18T07:18:35.006Z,-3.60
2018-12-18T07:21:03.306Z,-3.40
2018-12-18T07:23:31.631Z,-3.20
2018-12-18T07:26:00.538Z,-3.00
2018-12-18T07:28:28.855Z,-3.10
2018-12-18T07:30:57.428Z,-3.10
2018-12-18T07:33:25.933Z,-3.20
2018-12-18T07:35:54.805Z,-3.20
2018-12-18T07:38:23.616Z,-3.30
2018-12-18T07:40:52.056Z,-3.30
2018-12-18T07:43:20.317Z,-3.40
2018-12-18T07:45:48.564Z,-3.30
2018-12-18T07:48:16.911Z,-3.30
2018-12-18T07:50:45.114Z,-3.20
2018-12-18T07:53:13.679Z,-3.10
2018-12-18T07:55:42.559Z,-3.00
2018-12-18T07:58:11.137Z,-2.90
2018-12-18T08:00:39.623Z,-2.70
2018-12-18T08:03:08.047Z,-2.40
2018-12-18T08:05:36.496Z,-2.20
2018-12-18T08:08:05.134Z,-2.00
2018-12-18T08:10:33.601Z,-1.80
2018-12-18T08:13:03.360Z,-1.80
2018-12-18T08:15:31.625Z,-1.80
2018-12-18T08:18:00.125Z,-1.80
2018-12-18T08:20:28.532Z,-1.70
2018-12-18T08:22:56.873Z,-1.70
2018-12-18T08:25:25.214Z,-1.70
2018-12-18T08:27:53.848Z,-1.70
2018-12-18T08:30:23.319Z,-1.60
2018-12-18T08:32:51.722Z,-1.60
2018-12-18T08:35:19.969Z,-1.50
2018-12-18T08:37:48.421Z,-1.40
2018-12-18T08:40:16.661Z,-1.30
2018-12-18T08:42:44.862Z,-1.10
2018-12-18T08:45:13.552Z,-1.00
2018-12-18T08:47:42.076Z,-0.80
2018-12-18T08:50:10.681Z,-0.70
2018-12-18T08:52:39.013Z,-0.50
2018-12-18T08:55:07.628Z,-0.40
2018-12-18T08:57:35.905Z,-0.40
2018-12-18T09:00:05.521Z,-0.30
2018-12-18T09:02:33.790Z,-0.20
2018-12-18T09:05:02.062Z,-0.20
2018-12-18T09:07:30.456Z,-0.10
2018-12-18T09:09:58.805Z,0.00
2018-12-18T09:12:27.647Z,0.00
2018-12-18T09:14:57.204Z,0.00
2018-12-18T09:17:31.492Z,0.20
2018-12-18T09:20:00.235Z,0.20
2018-12-18T09:22:28.803Z,0.30
2018-12-18T09:24:57.361Z,0.40
2018-12-18T09:27:25.831Z,0.60
2018-12-18T09:29:54.277Z,0.70
2018-12-18T09:32:22.845Z,0.80
2018-12-18T09:34:51.506Z,0.90
2018-12-18T09:37:20.023Z,1.00
2018-12-18T09:39:48.472Z,1.00
2018-12-18T09:42:22.245Z,1.10
2018-12-18T09:44:50.822Z,1.10
2018-12-18T09:47:19.315Z,1.10
2018-12-18T09:49:47.988Z,1.10
2018-12-18T09:52:16.265Z,1.20
2018-12-18T09:54:44.621Z,1.20
2018-12-18T09:58:17.809Z,1.20
2018-12-18T10:00:46.293Z,1.30
2018-12-18T10:03:14.655Z,1.40
2018-12-18T10:05:43.079Z,1.40
2018-12-18T10:08:11.271Z,1.50
2018-12-18T10:10:40.143Z,1.50
2018-12-18T10:13:08.453Z,1.60
2018-12-18T10:15:36.725Z,1.70
2018-12-18T10:18:05.156Z,1.70
2018-12-18T10:20:33.507Z,1.80
2018-12-18T10:23:01.873Z,1.90
2018-12-18T10:25:30.397Z,2.10
2018-12-18T10:27:58.951Z,2.20
2018-12-18T10:30:27.302Z,2.40
2018-12-18T10:32:55.689Z,2.40
2018-12-18T10:35:24.141Z,2.60
2018-12-18T10:37:52.621Z,2.70
2018-12-18T10:40:21.103Z,2.80
2018-12-18T10:42:49.460Z,2.90
2018-12-18T10:45:19.852Z,2.90
2018-12-18T10:47:48.330Z,2.90
2018-12-18T10:50:16.924Z,3.00
2018-12-18T10:52:45.337Z,2.90
2018-12-18T10:55:13.530Z,3.10
2018-12-18T10:57:41.721Z,3.30
2018-12-18T11:00:16.171Z,3.40
2018-12-18T11:02:44.766Z,3.50
2018-12-18T11:05:13.370Z,3.60
2018-12-18T11:07:41.874Z,3.70
2018-12-18T11:10:10.137Z,3.70
2018-12-18T11:12:40.627Z,3.60
2018-12-18T11:15:09.502Z,3.60
2018-12-18T11:17:39.202Z,3.60
2018-12-18T11:20:07.925Z,3.70
2018-12-18T11:22:36.421Z,3.70
2018-12-18T11:25:05.533Z,3.90
2018-12-18T11:27:33.861Z,4.00
2018-12-18T11:30:02.383Z,4.10
2018-12-18T11:32:33.163Z,4.20
2018-12-18T11:35:01.493Z,4.20
2018-12-18T11:37:29.732Z,4.10
2018-12-18T11:39:58.031Z,4.20
2018-12-18T11:42:26.382Z,4.20
2018-12-18T11:44:54.661Z,4.20
2018-12-18T11:47:22.909Z,4.20
2018-12-18T11:49:52.385Z,4.30
2018-12-18T11:52:20.742Z,4.30
2018-12-18T11:54:49.124Z,4.40
2018-12-18T11:57:17.677Z,4.50
2018-12-18T11:59:46.105Z,4.60
2018-12-18T12:02:14.381Z,4.60
2018-12-18T12:04:42.715Z,4.60
2018-12-18T12:07:10.986Z,4.60
2018-12-18T12:09:39.277Z,4.50
2018-12-18T12:12:07.661Z,4.40
2018-12-18T12:14:35.961Z,4.50
2018-12-18T12:17:05.355Z,4.40
2018-12-18T12:19:33.662Z,4.30
2018-12-18T12:22:01.925Z,4.20
2018-12-18T12:24:30.247Z,4.10
2018-12-18T12:27:04.168Z,3.90
2018-12-18T12:29:32.415Z,3.90
2018-12-18T12:32:00.847Z,3.90
2018-12-18T12:34:29.236Z,3.90
2018-12-18T12:36:57.588Z,4.00
2018-12-18T12:39:25.944Z,4.00
2018-12-18T12:41:54.125Z,3.90
2018-12-18T12:44:22.480Z,3.80
2018-12-18T12:46:50.870Z,3.80
2018-12-18T12:49:21.325Z,3.70
2018-12-18T12:51:49.856Z,3.60
2018-12-18T12:54:18.136Z,3.50
2018-12-18T12:56:46.500Z,3.50
2018-12-18T12:59:14.777Z,3.50
2018-12-18T13:01:43.066Z,3.50
2018-12-18T13:04:11.305Z,3.40
2018-12-18T13:06:40.066Z,3.50
2018-12-18T13:09:09.250Z,3.40
2018-12-18T13:11:37.632Z,3.40
2018-12-18T13:14:05.865Z,3.40
2018-12-18T13:16:34.141Z,3.40
2018-12-18T13:19:02.534Z,3.40
2018-12-18T13:21:31.083Z,3.40
2018-12-18T13:23:59.479Z,3.50
2018-12-18T13:26:27.831Z,3.60
2018-12-18T13:28:56.319Z,3.70
2018-12-18T13:31:24.705Z,3.50
2018-12-18T13:33:53.032Z,3.50
2018-12-18T13:36:21.484Z,3.50
2018-12-18T13:38:49.930Z,3.60
2018-12-18T13:41:18.277Z,3.70
2018-12-18T13:43:46.888Z,3.80
2018-12-18T13:46:15.471Z,3.90
2018-12-18T13:48:43.851Z,4.00
2018-12-18T13:51:12.254Z,4.10
2018-12-18T13:53:40.589Z,4.20
2018-12-18T13:56:08.881Z,4.40
2018-12-18T13:58:37.223Z,4.40
2018-12-18T14:01:05.498Z,4.50
2018-12-18T14:03:33.708Z,4.60
2018-12-18T14:06:02.283Z,4.50
2018-12-18T14:08:30.718Z,4.50
2018-12-18T14:10:59.270Z,4.50
2018-12-18T14:13:27.559Z,4.50
2018-12-18T14:15:55.835Z,4.50
2018-12-18T14:18:24.502Z,4.40
2018-12-18T14:20:52.805Z,4.30
2018-12-18T14:23:21.102Z,4.40
2018-12-18T14:25:49.825Z,4.40
2018-12-18T14:28:18.330Z,4.50
2018-12-18T14:30:47.453Z,4.30
2018-12-18T14:33:15.702Z,4.20
2018-12-18T14:35:44.046Z,4.10
2018-12-18T14:38:12.425Z,3.90
2018-12-18T14:40:40.970Z,3.80
2018-12-18T14:43:09.229Z,3.70
2018-12-18T14:45:37.504Z,3.60
2018-12-18T14:48:05.894Z,3.40
2018-12-18T14:50:34.321Z,3.30
2018-12-18T14:53:02.492Z,3.30
2018-12-18T14:55:31.026Z,3.30
2018-12-18T14:57:59.394Z,3.20
2018-12-18T15:00:27.770Z,3.00
2018-12-18T15:02:56.248Z,3.00
2018-12-18T15:05:25.160Z,2.80
2018-12-18T15:07:53.623Z,2.70
2018-12-18T15:10:21.945Z,2.40
2018-12-18T15:12:50.968Z,2.20
2018-12-18T15:15:19.426Z,1.90
2018-12-18T15:20:38.482Z,1.60
2018-12-18T15:23:07.304Z,1.40
2018-12-18T15:25:35.556Z,1.30
2018-12-18T15:28:03.933Z,1.20
2018-12-18T15:30:32.199Z,1.10
2018-12-18T15:33:00.458Z,1.00
2018-12-18T15:35:29.189Z,1.00
2018-12-18T15:37:57.478Z,0.90
2018-12-18T15:40:26.246Z,0.80
2018-12-18T15:42:54.586Z,0.70
2018-12-18T15:45:22.913Z,0.60
2018-12-18T15:47:51.368Z,0.50
2018-12-18T15:50:19.722Z,0.30
2018-12-18T15:52:48.935Z,0.30
2018-12-18T15:55:17.302Z,0.10
2018-12-18T15:57:46.434Z,0.20
2018-12-18T16:00:15.139Z,0.20
2018-12-18T16:02:43.822Z,0.30
2018-12-18T16:05:12.499Z,0.40
2018-12-18T16:07:41.374Z,0.50
2018-12-18T16:10:09.974Z,0.70
2018-12-18T16:12:38.961Z,0.90
2018-12-18T16:15:08.504Z,1.00
2018-12-18T16:17:37.670Z,1.00
2018-12-18T16:20:07.023Z,0.90
2018-12-18T16:22:35.286Z,0.60
2018-12-18T16:25:03.765Z,0.30
2018-12-18T16:27:32.306Z,0.10
2018-12-18T16:30:00.786Z,-0.20
2018-12-18T16:32:29.731Z,-0.30
2018-12-18T16:34:58.452Z,-0.40
2018-12-18T16:37:27.090Z,-0.50
2018-12-18T16:39:55.854Z,-0.60
2018-12-18T16:42:24.246Z,-0.50
2018-12-18T16:44:52.912Z,-0.50
2018-12-18T16:47:21.171Z,-0.60
2018-12-18T16:49:49.664Z,-0.60
2018-12-18T16:52:18.254Z,-0.60
2018-12-18T16:54:46.941Z,-0.60
2018-12-18T16:57:15.530Z,-0.50
2018-12-18T16:59:44.019Z,-0.50
2018-12-18T17:02:14.003Z,-0.20
2018-12-18T17:04:42.187Z,-0.30
2018-12-18T17:07:10.814Z,-0.30
2018-12-18T17:09:39.230Z,0.00
2018-12-18T17:12:07.890Z,0.00
2018-12-18T17:14:37.236Z,-0.20
2018-12-18T17:17:05.858Z,-0.50
2018-12-18T17:19:34.660Z,-0.70
2018-12-18T17:22:03.220Z,-0.80
2018-12-18T17:24:31.907Z,-0.90
2018-12-18T17:27:00.483Z,-0.80
2018-12-18T17:29:28.982Z,-0.90
2018-12-18T17:31:57.608Z,-0.80
2018-12-18T17:34:26.415Z,-0.80
2018-12-18T17:36:54.790Z,-0.80
2018-12-18T17:39:23.205Z,-0.90
2018-12-18T17:41:51.498Z,-0.90
2018-12-18T17:44:20.007Z,-1.00
2018-12-18T17:46:48.815Z,-0.80
2018-12-18T17:49:17.426Z,-0.80
2018-12-18T17:51:46.050Z,-0.90
2018-12-18T17:54:14.466Z,-0.80
2018-12-18T17:56:42.798Z,-0.90
2018-12-18T17:59:11.359Z,-1.10
2018-12-18T18:01:39.850Z,-1.20
2018-12-18T18:04:08.258Z,-1.30
2018-12-18T18:06:36.639Z,-1.30
2018-12-18T18:09:08.474Z,-1.40
2018-12-18T18:11:37.198Z,-1.50
2018-12-18T18:14:05.560Z,-1.60
2018-12-18T18:16:34.316Z,-1.60
2018-12-18T18:19:02.676Z,-1.60
2018-12-18T18:21:31.570Z,-1.70
2018-12-18T18:24:00.274Z,-1.60
2018-12-18T18:26:29.738Z,-1.50
2018-12-18T18:28:58.342Z,-1.60
2018-12-18T18:31:26.715Z,-1.60
2018-12-18T18:33:55.327Z,-1.50
2018-12-18T18:36:24.126Z,-1.20
2018-12-18T18:38:52.690Z,-0.90
2018-12-18T18:41:22.126Z,-0.60
2018-12-18T18:43:51.469Z,-0.30
2018-12-18T18:46:19.778Z,0.00
2018-12-18T18:48:48.210Z,0.10
2018-12-18T18:51:17.916Z,0.30
2018-12-18T18:53:46.650Z,1.40
2018-12-18T18:56:15.742Z,1.30
2018-12-18T18:58:44.531Z,1.70
2018-12-18T19:01:13.045Z,2.10
2018-12-18T19:03:41.421Z,2.20
2018-12-18T19:06:10.777Z,2.00
2018-12-18T19:08:39.133Z,1.80
2018-12-18T19:11:07.667Z,1.30
2018-12-18T19:13:36.094Z,0.90
2018-12-18T19:16:04.886Z,0.40
2018-12-18T19:18:33.408Z,0.00
2018-12-18T19:21:02.105Z,-0.30
2018-12-18T19:23:30.674Z,-0.50
2018-12-18T19:25:59.215Z,-0.70
2018-12-18T19:28:27.394Z,-0.80
2018-12-18T19:30:55.581Z,-0.80
2018-12-18T19:33:23.764Z,-0.80
2018-12-18T19:35:51.965Z,-0.80
2018-12-18T19:38:20.459Z,-0.80
2018-12-18T19:40:49.490Z,-0.70
2018-12-18T19:43:17.862Z,0.00
2018-12-18T19:45:46.121Z,0.90
2018-12-18T19:48:14.445Z,1.70
2018-12-18T19:50:42.809Z,2.40
2018-12-18T19:53:11.204Z,2.30
2018-12-18T19:55:39.828Z,1.70
2018-12-18T19:58:08.403Z,1.00
2018-12-18T20:00:36.934Z,0.30
2018-12-18T20:03:05.215Z,-0.40
2018-12-18T20:05:33.646Z,-0.80
2018-12-18T20:08:02.175Z,-1.20
2018-12-18T20:10:31.074Z,-1.30
2018-12-18T20:13:04.224Z,-1.50
2018-12-18T20:15:32.651Z,-1.60
2018-12-18T20:18:01.329Z,-1.60
2018-12-18T20:20:29.819Z,-1.70
2018-12-18T20:22:58.392Z,-1.80
2018-12-18T20:25:26.815Z,-1.80
2018-12-18T20:27:55.156Z,-1.70
2018-12-18T20:30:23.471Z,-1.40
2018-12-18T20:32:52.065Z,-1.00
2018-12-18T20:35:21.295Z,-1.00
2018-12-18T20:37:50.739Z,-1.00
2018-12-18T20:40:19.931Z,-1.30
2018-12-18T20:42:48.220Z,-1.50
2018-12-18T20:45:16.770Z,-1.70
2018-12-18T20:47:45.341Z,-1.90
2018-12-18T20:50:14.205Z,-2.00
2018-12-18T20:52:43.077Z,-2.20
2018-12-18T20:55:11.757Z,-2.20
2018-12-18T20:57:40.253Z,-2.20
2018-12-18T21:00:11.460Z,-2.30
2018-12-18T21:02:40.365Z,-2.30
2018-12-18T21:05:09.750Z,-2.30
2018-12-18T21:07:38.680Z,-2.20
2018-12-18T21:10:08.653Z,-2.10
2018-12-18T21:12:37.374Z,-2.10
2018-12-18T21:15:06.778Z,-2.20
2018-12-18T21:17:35.546Z,-2.20
2018-12-18T21:20:07.255Z,-2.30
2018-12-18T21:22:36.640Z,-2.40
2018-12-18T21:25:06.315Z,-2.40
2018-12-18T21:27:35.386Z,-2.40
2018-12-18T21:30:05.310Z,-2.40
2018-12-18T21:32:34.766Z,-2.40
2018-12-18T21:35:04.793Z,-2.30
2018-12-18T21:37:33.430Z,-2.20
2018-12-18T21:40:03.626Z,-2.30
2018-12-18T21:42:32.245Z,-2.40
2018-12-18T21:45:01.431Z,-2.60
2018-12-18T21:47:30.126Z,-2.70
2018-12-18T21:49:59.024Z,-2.80
2018-12-18T21:52:27.671Z,-2.80
2018-12-18T21:54:56.790Z,-2.80
2018-12-18T21:57:25.619Z,-2.80
2018-12-18T21:59:55.101Z,-2.80
2018-12-18T22:02:23.658Z,-2.70
2018-12-18T22:04:52.451Z,-2.70
2018-12-18T22:07:21.283Z,-2.60
2018-12-18T22:09:49.941Z,-2.60
2018-12-18T22:12:19.865Z,-2.60
2018-12-18T22:14:49.299Z,-2.60
2018-12-18T22:17:18.952Z,-2.70
2018-12-18T22:19:48.477Z,-2.80
2018-12-18T22:22:17.577Z,-2.80
2018-12-18T22:24:46.726Z,-2.80
2018-12-18T22:27:15.978Z,-2.80
2018-12-18T22:29:45.217Z,-2.80
2018-12-18T22:32:13.881Z,-2.80
2018-12-18T22:34:42.219Z,-2.80
2018-12-18T22:37:10.803Z,-2.70
2018-12-18T22:39:39.479Z,-2.70
2018-12-18T22:42:08.086Z,-2.70
2018-12-18T22:44:36.643Z,-2.70
2018-12-18T22:47:05.550Z,-2.70
2018-12-18T22:49:34.548Z,-2.70
2018-12-18T22:52:02.824Z,-2.80
2018-12-18T22:54:31.406Z,-2.80
2018-12-18T22:56:59.876Z,-2.80
2018-12-18T22:59:28.233Z,-2.80
2018-12-18T23:01:56.847Z,-2.90
2018-12-18T23:04:26.028Z,-3.00
2018-12-18T23:06:55.450Z,-3.10
2018-12-18T23:09:24.014Z,-3.00
2018-12-18T23:11:53.287Z,-3.00
2018-12-18T23:14:21.709Z,-2.90
2018-12-18T23:16:50.494Z,-2.90
2018-12-18T23:19:19.099Z,-2.90
2018-12-18T23:21:48.472Z,-2.90
2018-12-18T23:24:16.804Z,-3.00
2018-12-18T23:26:45.160Z,-3.10
2018-12-18T23:29:13.710Z,-3.10
2018-12-18T23:31:42.933Z,-3.10
2018-12-18T23:34:11.610Z,-3.20
2018-12-18T23:36:40.296Z,-3.20
2018-12-18T23:39:09.564Z,-3.20
2018-12-18T23:41:38.188Z,-3.10
2018-12-18T23:44:06.953Z,-3.10
2018-12-18T23:46:35.484Z,-3.10
2018-12-18T23:49:05.079Z,-3.00
2018-12-18T23:51:33.422Z,-3.10
2018-12-18T23:54:02.552Z,-3.10
2018-12-18T23:56:31.745Z,-3.10
2018-12-18T23:59:00.020Z,-3.10
